Flight Track Log - Related Links

Times and Time Zones

All times are in EDT time to prevent confusion due to time zone crossing. See the XOJ549 flight status page for this flight to view local times or setup timezone preferences in your user account.

Time Position Orientation Groundspeed Altitude Reporting Facility
EDT Latitude Longitude Course Direction KTS MPH feet Rate Location/Type
Thu 01:21:11 PM 41.0333 -73.7333 304° West 211 243 3,400  Level New York TRACON
Thu 01:22:11 PM 41.0667 -73.8000 304° West 255 293 7,000 2,800 Climbing New York TRACON
Thu 01:23:11 PM 41.0500 -73.9167 259° West 296 341 9,000 2,200 Climbing New York TRACON
Thu 01:24:11 PM 41.0167 -74.0167 246° West 307 353 11,400 2,750 Climbing New York TRACON
Thu 01:25:11 PM 40.9500 -74.1000 223° Southwest 354 407 14,500 1,800 Climbing New York TRACON
Thu 01:26:11 PM 40.8833 -74.2000 229° Southwest 395 455 15,000 768 Climbing New York TRACON
Thu 01:28:34 PM 40.8306 -74.5447 259° West 419 482 17,100 618 Climbing New York Center
Thu 01:29:35 PM 40.8264 -74.6733 268° West 409 471 17,100  Level New York Center
Thu 01:30:33 PM 40.8192 -74.8239 266° West 384 442 17,100 966 Level New York Center
Thu 01:31:33 PM 40.8125 -74.9522 266° West 384 442 19,000 2,410 Climbing New York Center
Thu 01:32:35 PM 40.8044 -75.1161 266° West 395 455 22,000 2,656 Climbing New York Center
Thu 01:33:35 PM 40.7842 -75.2711 260° West 414 476 24,400 2,492 Climbing New York Center
Thu 01:34:33 PM 40.7511 -75.4278 254° West 440 506 26,900 2,370 Climbing New York Center
Thu 01:35:34 PM 40.6950 -75.5800 244° Southwest 453 521 29,100 2,132 Climbing New York Center
Thu 01:36:34 PM 40.6389 -75.7267 243° Southwest 459 528 31,200 1,736 Climbing New York Center
Thu 01:37:35 PM 40.5806 -75.8756 243° Southwest 459 528 32,600 1,736 Climbing New York Center
Thu 01:38:35 PM 40.5217 -76.0267 243° Southwest 472 543 34,700 2,136 Climbing New York Center
Thu 01:39:33 PM 40.4647 -76.1778 244° Southwest 467 537 36,800 2,034 Climbing New York Center
Thu 01:40:33 PM 40.4103 -76.3236 244° Southwest 454 522 38,700 1,550 Climbing New York Center
Thu 01:41:33 PM 40.3603 -76.4503 243° Southwest 449 517 39,900 843 Climbing New York Center
Thu 01:42:34 PM 40.3289 -76.5839 253° West 438 504 40,400 595 Climbing New York Center
Thu 01:43:34 PM 40.3178 -76.7628 265° West 445 512 41,100 1,008 Climbing New York Center
Thu 01:44:33 PM 40.3222 -76.9183 272° West 438 504 42,400 958 Climbing New York Center
Thu 01:45:33 PM 40.3233 -77.0981 271° West 446 513 43,000 298 Climbing New York Center
Thu 01:46:34 PM 40.3239 -77.2425 270° West 446 513 43,000  Level New York Center
Thu 01:47:34 PM 40.3233 -77.4003 270° West 441 507 43,000  Level New York Center
Thu 01:49:48 PM 40.3228 -77.7889 270° West 460 529 43,000  Level Cleveland Center
Thu 01:50:48 PM 40.3244 -77.9522 271° West 460 529 43,000  Level Cleveland Center
Thu 01:51:47 PM 40.3217 -78.1103 269° West 460 529 43,000  Level Cleveland Center
Thu 01:52:48 PM 40.3211 -78.2711 270° West 454 522 43,000  Level Cleveland Center
Thu 01:53:48 PM 40.3219 -78.4292 270° West 449 517 43,000  Level Cleveland Center
Thu 01:54:48 PM 40.3208 -78.5897 270° West 443 510 43,000  Level Cleveland Center
Thu 01:55:48 PM 40.3192 -78.7478 269° West 443 510 43,000  Level Cleveland Center
Thu 01:56:48 PM 40.3175 -78.9083 269° West 443 510 43,000  Level Cleveland Center
Thu 01:57:48 PM 40.3156 -79.0719 269° West 443 510 43,000  Level Cleveland Center
Thu 01:58:48 PM 40.3156 -79.2353 270° West 443 510 43,000  Level Cleveland Center
Thu 01:59:48 PM 40.3172 -79.3767 271° West 438 504 43,000  Level Cleveland Center
Thu 02:00:48 PM 40.3147 -79.5375 269° West 438 504 43,000  Level Cleveland Center
Thu 02:01:48 PM 40.3117 -79.6956 269° West 438 504 43,000  Level Cleveland Center
Thu 02:02:48 PM 40.3086 -79.8533 269° West 438 504 43,000  Level Cleveland Center
Thu 02:03:48 PM 40.3036 -80.0358 268° West 452 520 43,000  Level Cleveland Center
Thu 02:04:48 PM 40.3000 -80.1992 268° West 463 533 43,000  Level Cleveland Center
Thu 02:05:48 PM 40.2983 -80.3625 269° West 449 517 43,000  Level Cleveland Center
Thu 02:06:48 PM 40.2964 -80.5206 269° West 449 517 43,000  Level Cleveland Center
Thu 02:07:48 PM 40.2944 -80.6783 269° West 439 505 43,000  Level Cleveland Center
Thu 02:08:48 PM 40.2900 -80.8361 268° West 439 505 43,000  Level Cleveland Center
Thu 02:09:48 PM 40.2853 -80.9914 268° West 439 505 43,000  Level Cleveland Center
Thu 02:11:48 PM 40.2739 -81.3089 267° West 440 506 43,000  Level Indianapolis Center
Thu 02:12:51 PM 40.2686 -81.4708 268° West 440 506 43,000  Level Indianapolis Center
Thu 02:13:53 PM 40.2631 -81.6339 267° West 443 510 43,000  Level Indianapolis Center
Thu 02:14:55 PM 40.2575 -81.7967 267° West 444 511 43,000  Level Indianapolis Center
Thu 02:15:57 PM 40.2533 -81.9572 268° West 438 504 43,000  Level Indianapolis Center
Thu 02:16:59 PM 40.2467 -82.1172 267° West 436 502 43,000  Level Indianapolis Center
Thu 02:18:01 PM 40.2403 -82.2903 267° West 435 501 43,000  Level Indianapolis Center
Thu 02:19:03 PM 40.2342 -82.4494 267° West 435 501 43,000  Level Indianapolis Center
Thu 02:20:05 PM 40.2283 -82.6094 267° West 436 502 43,000  Level Indianapolis Center
Thu 02:21:07 PM 40.2214 -82.7686 267° West 435 501 43,000  Level Indianapolis Center
Thu 02:22:09 PM 40.2136 -82.9542 267° West 436 502 43,000  Level Indianapolis Center
Thu 02:23:11 PM 40.2058 -83.1142 266° West 439 505 43,000  Level Indianapolis Center
Thu 02:24:13 PM 40.1981 -83.2733 266° West 438 504 43,000  Level Indianapolis Center
Thu 02:25:15 PM 40.1911 -83.4322 267° West 437 503 43,000  Level Indianapolis Center
Thu 02:26:17 PM 40.1831 -83.5911 266° West 439 505 43,000  Level Indianapolis Center
Thu 02:27:19 PM 40.1742 -83.7750 266° West 436 502 43,000  Level Indianapolis Center
Thu 02:28:21 PM 40.1658 -83.9317 266° West 433 498 43,000  Level Indianapolis Center
Thu 02:29:23 PM 40.1567 -84.0897 266° West 433 498 43,000  Level Indianapolis Center
Thu 02:30:25 PM 40.1475 -84.2456 266° West 429 494 43,000  Level Indianapolis Center
Thu 02:31:27 PM 40.1394 -84.4014 266° West 429 494 43,000  Level Indianapolis Center
Thu 02:32:29 PM 40.1300 -84.5578 266° West 429 494 43,000  Level Indianapolis Center
Thu 02:33:31 PM 40.1211 -84.7158 266° West 432 497 43,000  Level Indianapolis Center
Thu 02:34:33 PM 40.1100 -84.8975 265° West 430 495 43,000  Level Indianapolis Center
Thu 02:35:36 PM 40.1019 -85.0358 266° West 432 497 43,000  Level Indianapolis Center
Thu 02:36:38 PM 40.0892 -85.2233 265° West 434 499 43,000  Level Indianapolis Center
Thu 02:37:40 PM 40.0797 -85.3811 266° West 437 503 43,000  Level Indianapolis Center
Thu 02:38:42 PM 40.0692 -85.5375 265° West 435 501 43,000  Level Indianapolis Center
Thu 02:39:44 PM 40.0597 -85.6944 266° West 437 503 43,000  Level Indianapolis Center
Thu 02:40:46 PM 40.0481 -85.8494 264° West 434 499 43,000  Level Indianapolis Center
Thu 02:41:48 PM 40.0361 -86.0347 265° West 432 497 43,000  Level Indianapolis Center
Thu 02:42:31 PM 40.0297 -86.1267 265° West 435 501 43,000  Level Chicago Center
Thu 02:43:33 PM 40.0192 -86.2803 265° West 433 498 43,000  Level Chicago Center
Thu 02:44:35 PM 40.0047 -86.4653 264° West 433 498 43,000  Level Chicago Center
Thu 02:44:54 PM 40.0022 -86.4961 264° West 433 498 43,000  Level Indianapolis Center
Thu 02:45:56 PM 39.9897 -86.6508 264° West 436 502 43,000  Level Indianapolis Center
Thu 02:46:58 PM 39.9531 -86.8325 255° West 436 502 43,000  Level Indianapolis Center
Thu 02:48:01 PM 39.9058 -86.9772 247° West 439 505 43,000  Level Indianapolis Center
Thu 02:49:03 PM 39.8572 -87.1217 246° West 438 504 43,000  Level Indianapolis Center
Thu 02:50:05 PM 39.8081 -87.2661 246° West 440 506 43,000  Level Indianapolis Center
Thu 02:51:07 PM 39.7583 -87.4106 246° West 441 507 43,000  Level Indianapolis Center
Thu 02:52:09 PM 39.7403 -87.5986 263° West 439 505 43,000  Level Indianapolis Center
Thu 02:53:11 PM 39.7303 -87.7586 265° West 443 510 43,000  Level Indianapolis Center
Thu 02:54:13 PM 39.7208 -87.9161 266° West 443 510 43,000  Level Indianapolis Center
Thu 02:55:15 PM 39.7103 -88.0747 265° West 442 509 43,000  Level Indianapolis Center
Thu 02:56:17 PM 39.6983 -88.2344 264° West 444 511 43,000  Level Indianapolis Center
Thu 02:57:19 PM 39.6867 -88.4256 266° West 444 511 43,000  Level Indianapolis Center
Thu 02:58:22 PM 39.6747 -88.5764 264° West 446 513 43,000  Level Kansas City Center
Thu 02:59:24 PM 39.6628 -88.7356 264° West 444 511 43,000  Level Kansas City Center
Thu 03:00:26 PM 39.6506 -88.8972 264° West 447 514 43,000  Level Kansas City Center
Thu 03:01:28 PM 39.6389 -89.0578 265° West 447 514 43,000  Level Kansas City Center
Thu 03:02:29 PM 39.6242 -89.2503 264° West 447 514 43,000  Level Kansas City Center
Thu 03:03:31 PM 39.6142 -89.3897 265° West 446 513 43,000  Level Kansas City Center
Thu 03:04:33 PM 39.5994 -89.5800 264° West 444 511 43,000  Level Kansas City Center
Thu 03:05:35 PM 39.5864 -89.7394 264° West 446 513 43,000  Level Kansas City Center
Thu 03:06:37 PM 39.5742 -89.8950 264° West 442 509 43,000  Level Kansas City Center
Thu 03:07:38 PM 39.5606 -90.0522 264° West 442 509 43,000  Level Kansas City Center
Thu 03:08:40 PM 39.5481 -90.2111 264° West 444 511 43,000  Level Kansas City Center
Thu 03:09:42 PM 39.5344 -90.3664 264° West 441 507 43,000  Level Kansas City Center
Thu 03:10:44 PM 39.5183 -90.5539 264° West 440 506 43,000  Level Kansas City Center
Thu 03:11:46 PM 39.5056 -90.7081 264° West 437 503 43,000  Level Kansas City Center
Thu 03:12:48 PM 39.4903 -90.8636 263° West 437 503 43,000  Level Kansas City Center
Thu 03:13:50 PM 39.4764 -91.0167 263° West 435 501 43,000  Level Kansas City Center
Thu 03:14:52 PM 39.4631 -91.1683 264° West 429 494 43,000  Level Kansas City Center
Thu 03:15:54 PM 39.4478 -91.3211 263° West 430 495 43,000  Level Kansas City Center
Thu 03:16:56 PM 39.4308 -91.5017 263° West 426 490 43,000  Level Kansas City Center
Thu 03:17:57 PM 39.4153 -91.6519 262° West 425 489 43,000  Level Kansas City Center
Thu 03:18:59 PM 39.4003 -91.8119 263° West 426 490 43,000  Level Kansas City Center
Thu 03:20:01 PM 39.3853 -91.9619 263° West 424 488 43,000  Level Kansas City Center
Thu 03:21:03 PM 39.3711 -92.1117 263° West 421 484 43,000  Level Kansas City Center
Thu 03:22:05 PM 39.3544 -92.2594 262° West 418 481 43,000  Level Kansas City Center
Thu 03:23:07 PM 39.3394 -92.4100 263° West 421 484 43,000  Level Kansas City Center
Thu 03:24:09 PM 39.3203 -92.5889 262° West 421 484 43,000 -387 Level Kansas City Center
Thu 03:25:11 PM 39.3036 -92.7358 262° West 417 480 42,200 -1,113 Descending Kansas City Center
Thu 03:26:13 PM 39.2872 -92.8881 262° West 424 488 40,700 -1,500 Descending Kansas City Center
Thu 03:27:15 PM 39.2714 -93.0342 262° West 420 483 39,100 -1,548 Descending Kansas City Center
Thu 03:28:17 PM 39.2569 -93.1708 262° West 398 458 37,500 -2,032 Descending Kansas City Center
Thu 03:29:19 PM 39.2392 -93.3208 261° West 413 475 34,900 -2,634 Descending Kansas City Center
Thu 03:30:20 PM 39.2197 -93.4994 262° West 439 505 32,100 -2,537 Descending Kansas City Center
Thu 03:31:22 PM 39.2028 -93.6472 262° West 435 501 29,700 -2,516 Descending Kansas City Center
Thu 03:32:24 PM 39.1833 -93.8156 262° West 426 490 26,900 -2,516 Descending Kansas City Center
Thu 03:33:26 PM 39.1669 -93.9569 262° West 416 479 24,500 -2,516 Descending Kansas City Center
Thu 03:34:28 PM 39.1494 -94.1094 262° West 387 445 21,700 -2,516 Descending Kansas City Center
Thu 03:35:30 PM 39.1356 -94.2219 261° West 335 386 19,300 -2,634 Descending Kansas City Center
Thu 03:36:31 PM 39.1217 -94.3419 262° West 306 352 16,300 -2,829 Descending Kansas City Center
Thu 03:37:33 PM 39.1053 -94.4369 257° West 285 328 13,500 -2,758 Descending Kansas City Center
Thu 03:38:35 PM 39.0658 -94.5153 237° Southwest 272 313 10,600 -2,758 Descending Kansas City Center
Thu 03:39:37 PM 39.0192 -94.6067 237° Southwest 273 314 7,800 -1,839 Descending Kansas City Center
Thu 03:40:39 PM 38.9836 -94.6778 237° Southwest 252 290 6,800 -1,548 Descending Kansas City Center
Thu 03:41:41 PM 38.9900 -94.7850 274° West 268 308 4,600 -1,366 Descending Kansas City Center
Thu 03:42:42 PM 38.9953 -94.8753 274° West 265 305 4,000 -293 Descending Kansas City Center
Thu 03:43:44 PM 38.9383 -94.9461 224° Southwest 293 337 4,000 -48 Level Kansas City Center
Thu 03:44:46 PM 38.8672 -94.9828 202° Southwest 288 331 3,900 -339 Descending Kansas City Center
Thu 03:45:48 PM 38.8408 -95.0483 243° Southwest 226 260 3,300 -339 Descending Kansas City Center
Thu 03:46:50 PM 38.8603 -95.1167 290° West 180 207 3,200 -49 Descending Kansas City Center
Thu 03:47:51 PM 38.8922 -95.1386 332° Northwest 140 161 3,200 -195 Level Kansas City Center
Thu 03:48:53 PM 38.9214 -95.1578 333° Northwest 109 125 2,800 -435 Descending Kansas City Center
Thu 03:49:55 PM 38.9419 -95.1700 335° Northwest 89 102 2,300 -484 Descending Kansas City Center
Thu 03:50:57 PM 38.9672 -95.1872 332° Northwest 91 105 1,800 -532 Descending Kansas City Center
Thu 03:51:59 PM 38.9922 -95.2025 335° Northwest 101 116 1,200 -339 Descending Kansas City Center
Thu 03:53:01 PM 39.0169 -95.2194 332° Northwest 102 117 1,100 -97 Descending Kansas City Center

Login

Don't have an account? Register now (free) for customized features, flight alerts, and more!